Погода Кантхона неделю

Кантхо, Вьетнам

22 - 28 февраля
  • 22февраля
    Сегодня
    +23°
    +34°
    Практически безоблачно
    ВремяПогодаТемператураВлажностьДавлениеВетер, м/сВероятность осадков
    01:00Ясно и безоблачно+25°C96 %760 мм1.0 м/с2 %
    04:00Ясно и безоблачно+24°C97 %759 мм1.3 м/с2 %
    07:00Ясно и безоблачно+25°C95 %760 мм1.3 м/с2 %
    10:00Ясно и безоблачно+30°C64 %761 мм3.0 м/с2 %
    13:00Практически безоблачно+34°C46 %759 мм3.1 м/с2 %
    16:00Ясно и безоблачно+32°C46 %757 мм4.3 м/с2 %
    19:00Ясно и безоблачно+28°C65 %758 мм3.3 м/с2 %
    22:00Ясно и безоблачно+26°C85 %760 мм1.5 м/с2 %
  • 23февраля
    Пятница
    +24°
    +34°
    Облачно с прояснениями
    ВремяПогодаТемператураВлажностьДавлениеВетер, м/сВероятность осадков
    01:00Практически безоблачно+24°C95 %760 мм0.7 м/с2 %
    04:00Практически безоблачно+24°C95 %759 мм0.5 м/с2 %
    07:00Небольшая облачность+25°C95 %761 мм0.5 м/с2 %
    10:00Облачно с прояснениями+31°C64 %761 мм3.0 м/с19 %
    13:00Облачно с прояснениями+34°C50 %759 мм3.2 м/с28 %
    16:00Облачно с прояснениями+32°C48 %757 мм3.7 м/с13 %
    19:00Небольшая облачность+29°C72 %759 мм3.1 м/с2 %
    22:00Практически безоблачно+26°C87 %760 мм1.5 м/с2 %
  • 24февраля
    Суббота
    +24°
    +34°
    Ясно и безоблачно
    ВремяПогодаТемператураВлажностьДавлениеВетер, м/сВероятность осадков
    01:00Облачно с прояснениями+25°C94 %760 мм1.0 м/с2 %
    04:00Ясно и безоблачно+25°C91 %759 мм0.7 м/с2 %
    07:00Ясно и безоблачно+26°C92 %760 мм1.0 м/с4 %
    10:00Ясно и безоблачно+31°C64 %761 мм3.8 м/с12 %
    13:00Ясно и безоблачно+34°C49 %759 мм4.0 м/с28 %
    16:00Небольшая облачность+32°C46 %757 мм4.5 м/с20 %
    19:00Ясно и безоблачно+28°C60 %759 мм3.6 м/с2 %
    22:00Ясно и безоблачно+26°C76 %760 мм2.5 м/с2 %
  • 25февраля
    Воскресенье
    +24°
    +34°
    Практически безоблачно
    ВремяПогодаТемператураВлажностьДавлениеВетер, м/сВероятность осадков
    01:00Ясно и безоблачно+25°C79 %760 мм1.8 м/с2 %
    04:00Ясно и безоблачно+24°C82 %759 мм1.8 м/с2 %
    07:00Ясно и безоблачно+26°C80 %760 мм2.0 м/с2 %
    10:00Ясно и безоблачно+31°C59 %761 мм4.1 м/с2 %
    13:00Практически безоблачно+34°C47 %759 мм3.7 м/с3 %
    16:00Небольшая облачность+32°C43 %757 мм4.2 м/с9 %
    19:00Ясно и безоблачно+28°C65 %758 мм3.8 м/с2 %
    22:00Ясно и безоблачно+26°C79 %760 мм2.8 м/с2 %
  • 26февраля
    Понедельник
    +25°
    +35°
    Облачно с прояснениями
    ВремяПогодаТемператураВлажностьДавлениеВетер, м/сВероятность осадков
    01:00Облачно с прояснениями+25°C84 %760 мм2.0 м/с2 %
    04:00Облачно с прояснениями+25°C85 %759 мм2.2 м/с2 %
    07:00Облачно с прояснениями+26°C81 %760 мм2.1 м/с2 %
    10:00Облачно с прояснениями+31°C56 %761 мм3.9 м/с7 %
    13:00Облачно с прояснениями+34°C42 %758 мм3.3 м/с18 %
    16:00Облачно с прояснениями+32°C46 %757 мм4.0 м/с17 %
    19:00Облачно с прояснениями+28°C68 %758 мм3.7 м/с4 %
    22:00Облачно с прояснениями+27°C79 %759 мм2.8 м/с2 %
Мы используем cookies
Соглашаюсь